Terminal Aerodrome Forecast
Issued by NWS

Home | Current Version | Previous Version | Text Only | Print | Product List | Glossary On
Versions: 1 2 3 4 5 6 7 8 9 10 11 12 13 14 15 16 17 18 19 20
000
FTUS42 KFFC 201100
TAFPDK
TAF
KPDK 201131Z 2012/2112 08006KT P6SM SCT012
      TEMPO 2012/2014 BKN012
     FM201400 08010KT P6SM BKN025
     FM201600 10010G15KT P6SM SCT050
     FM210000 08003KT P6SM SCT250=

USA.gov is the U.S. government's official web portal to all federal, state and local government web resources and services.